createdAt,value
2023-03-06T00:00:17.740Z,100257.88
2023-03-06T00:02:44.690Z,100253.44
2023-03-06T00:05:12.515Z,100257.03
2023-03-06T00:07:38.990Z,100243.59
2023-03-06T00:10:06.048Z,100233.72
2023-03-06T00:12:32.475Z,100234.94
2023-03-06T00:14:58.888Z,100229.69
2023-03-06T00:17:27.192Z,100232.59
2023-03-06T00:19:53.703Z,100233.44
2023-03-06T00:22:20.152Z,100223.78
2023-03-06T00:24:46.563Z,100231.09
2023-03-06T00:27:13.098Z,100222.06
2023-03-06T00:29:39.536Z,100218.50
2023-03-06T00:32:06.520Z,100213.06
2023-03-06T00:34:32.933Z,100217.88
2023-03-06T00:36:59.460Z,100214.28
2023-03-06T00:39:25.903Z,100209.00
2023-03-06T00:41:52.625Z,100204.63
2023-03-06T00:44:18.998Z,100205.66
2023-03-06T00:46:45.427Z,100203.56
2023-03-06T00:49:11.824Z,100199.19
2023-03-06T00:51:38.259Z,100200.19
2023-03-06T00:54:04.695Z,100201.91
2023-03-06T00:56:31.165Z,100195.38
2023-03-06T00:58:57.581Z,100191.00
2023-03-06T01:01:24.008Z,100189.09
2023-03-06T01:03:50.402Z,100186.38
2023-03-06T01:06:17.495Z,100183.63
2023-03-06T01:08:43.904Z,100182.59
2023-03-06T01:11:10.371Z,100178.00
2023-03-06T01:13:36.773Z,100172.56
2023-03-06T01:16:11.834Z,100179.72
2023-03-06T01:18:38.281Z,100171.53
2023-03-06T01:21:05.882Z,100173.22
2023-03-06T01:23:32.940Z,100168.41
2023-03-06T01:25:59.880Z,100161.25
2023-03-06T01:28:27.538Z,100167.38
2023-03-06T01:30:54.455Z,100165.69
2023-03-06T01:33:21.354Z,100165.88
2023-03-06T01:35:48.209Z,100154.16
2023-03-06T01:38:15.659Z,100156.88
2023-03-06T01:40:42.190Z,100156.19
2023-03-06T01:43:25.822Z,100156.19
2023-03-06T01:45:52.783Z,100145.31
2023-03-06T01:48:22.981Z,100147.84
2023-03-06T01:50:52.627Z,100147.84
2023-03-06T01:53:20.432Z,100139.84
2023-03-06T01:55:47.036Z,100132.06
2023-03-06T01:58:17.504Z,100136.66
2023-03-06T02:00:44.156Z,100128.50
2023-03-06T02:03:14.392Z,100127.66
2023-03-06T02:05:41.825Z,100124.06
2023-03-06T02:08:10.575Z,100117.59
2023-03-06T02:10:37.174Z,100125.75
2023-03-06T02:13:04.354Z,100124.75
2023-03-06T02:15:30.996Z,100119.28
2023-03-06T02:17:57.574Z,100114.00
2023-03-06T02:20:34.364Z,100115.03
2023-03-06T02:23:32.948Z,100113.38
2023-03-06T02:26:01.759Z,100114.22
2023-03-06T02:28:28.322Z,100104.16
2023-03-06T02:30:55.745Z,100105.22
2023-03-06T02:33:25.845Z,100099.47
2023-03-06T02:35:58.930Z,100108.69
2023-03-06T02:38:29.726Z,100101.56
2023-03-06T02:40:58.051Z,100096.13
2023-03-06T02:43:28.767Z,100098.84
2023-03-06T02:45:55.373Z,100093.56
2023-03-06T02:48:22.015Z,100093.56
2023-03-06T02:50:49.106Z,100095.28
2023-03-06T02:53:17.809Z,100094.41
2023-03-06T02:55:44.562Z,100085.22
2023-03-06T02:58:10.978Z,100077.03
2023-03-06T03:00:37.431Z,100074.31
2023-03-06T03:03:04.797Z,100072.63
2023-03-06T03:05:31.943Z,100072.63
2023-03-06T03:07:58.578Z,100071.97
2023-03-06T03:10:25.154Z,100065.88
2023-03-06T03:12:51.796Z,100063.16
2023-03-06T03:15:18.541Z,100061.44
2023-03-06T03:17:45.009Z,100058.28
2023-03-06T03:20:15.102Z,100058.28
2023-03-06T03:22:41.560Z,100055.09
2023-03-06T03:25:08.599Z,100065.13
2023-03-06T03:27:35.042Z,100063.66
2023-03-06T03:30:01.585Z,100069.50
2023-03-06T03:32:28.050Z,100068.66
2023-03-06T03:34:57.278Z,100060.88
2023-03-06T03:37:23.844Z,100059.34
2023-03-06T03:39:50.222Z,100059.34
2023-03-06T03:42:16.716Z,100052.25
2023-03-06T03:44:43.155Z,100051.41
2023-03-06T03:47:09.619Z,100054.50
2023-03-06T03:49:36.065Z,100054.69
2023-03-06T03:52:02.528Z,100057.81
2023-03-06T03:54:28.936Z,100057.13
2023-03-06T03:56:55.577Z,100052.75
2023-03-06T03:59:22.540Z,100046.25
2023-03-06T04:01:49.567Z,100046.44
2023-03-06T04:04:16.354Z,100047.47
2023-03-06T04:06:42.746Z,100038.69
2023-03-06T04:09:09.230Z,100039.53
2023-03-06T04:11:35.669Z,100037.81
2023-03-06T04:14:03.242Z,100033.63
2023-03-06T04:16:29.698Z,100030.03
2023-03-06T04:18:56.155Z,100029.38
2023-03-06T04:21:22.532Z,100028.75
2023-03-06T04:23:48.931Z,100029.59
2023-03-06T04:26:15.417Z,100018.88
2023-03-06T04:28:41.905Z,100025.34
2023-03-06T04:31:08.452Z,100016.34
2023-03-06T04:33:35.003Z,100015.53
2023-03-06T04:36:01.452Z,100012.13
2023-03-06T04:38:27.862Z,100008.78
2023-03-06T04:40:54.305Z,100018.81
2023-03-06T04:43:20.880Z,100012.53
2023-03-06T04:45:47.364Z,100011.50
2023-03-06T04:48:18.522Z,100007.06
2023-03-06T04:50:45.278Z,99997.03
2023-03-06T04:53:11.707Z,99994.31
2023-03-06T04:55:38.509Z,99994.09
2023-03-06T04:58:04.887Z,99994.09
2023-03-06T05:00:31.759Z,99993.47
2023-03-06T05:03:00.288Z,99992.44
2023-03-06T05:05:26.838Z,99987.00
2023-03-06T05:07:53.780Z,99992.44
2023-03-06T05:10:20.726Z,99984.66
2023-03-06T05:12:47.186Z,99990.09
2023-03-06T05:15:14.418Z,99985.47
2023-03-06T05:17:40.954Z,99984.66
2023-03-06T05:20:09.727Z,99983.81
2023-03-06T05:22:36.396Z,99985.47
2023-03-06T05:25:03.217Z,99975.44
2023-03-06T05:27:29.651Z,99977.31
2023-03-06T05:29:56.124Z,99979.22
2023-03-06T05:32:22.937Z,99983.59
2023-03-06T05:34:49.716Z,99979.41
2023-03-06T05:37:16.324Z,99980.25
2023-03-06T05:39:43.044Z,99987.38
2023-03-06T05:42:10.009Z,99976.09
2023-03-06T05:44:36.477Z,99982.84
2023-03-06T05:47:02.901Z,99973.63
2023-03-06T05:49:34.344Z,99979.72
2023-03-06T05:52:03.933Z,99974.91
2023-03-06T05:54:31.701Z,99973.91
2023-03-06T05:56:58.129Z,99979.97
2023-03-06T05:59:28.155Z,99982.50
2023-03-06T06:01:55.581Z,99985.06
2023-03-06T06:04:23.387Z,99977.53
2023-03-06T06:06:58.522Z,99978.38
2023-03-06T06:09:26.163Z,99985.50
2023-03-06T06:11:54.271Z,99983.81
2023-03-06T06:14:20.695Z,99981.09
2023-03-06T06:16:47.230Z,99981.94
2023-03-06T06:19:18.632Z,99977.53
2023-03-06T06:21:50.440Z,99979.41
2023-03-06T06:24:18.849Z,99978.94
2023-03-06T06:26:45.369Z,99980.66
2023-03-06T06:29:13.431Z,99976.22
2023-03-06T06:31:40.439Z,99978.31
2023-03-06T06:34:07.660Z,99977.47
2023-03-06T06:36:34.474Z,99973.91
2023-03-06T06:39:01.133Z,99975.94
2023-03-06T06:41:46.551Z,99975.94
2023-03-06T06:44:16.169Z,99971.56
2023-03-06T06:49:32.544Z,99974.91
2023-03-06T06:51:59.361Z,99976.63
2023-03-06T06:54:25.916Z,99964.88
2023-03-06T06:56:52.353Z,99977.91
2023-03-06T06:59:19.055Z,99972.06
2023-03-06T07:01:45.482Z,99968.31
2023-03-06T07:04:13.346Z,99962.50
2023-03-06T07:06:39.826Z,99973.84
2023-03-06T07:09:06.208Z,99965.47
2023-03-06T07:11:32.624Z,99973.44
2023-03-06T07:13:59.282Z,99973.25
2023-03-06T07:16:25.681Z,99975.97
2023-03-06T07:18:52.092Z,99982.91
2023-03-06T07:21:18.537Z,99982.72
2023-03-06T07:23:44.952Z,99985.06
2023-03-06T07:26:11.434Z,99987.38
2023-03-06T07:28:51.637Z,99972.72
2023-03-06T07:31:22.066Z,99990.75
2023-03-06T07:33:52.912Z,99986.81
2023-03-06T07:36:20.140Z,99988.28
2023-03-06T07:38:46.700Z,99990.63
2023-03-06T07:41:15.262Z,99987.50
2023-03-06T07:43:43.405Z,99982.53
2023-03-06T07:46:10.658Z,99990.47
2023-03-06T07:48:37.707Z,99990.28
2023-03-06T07:51:12.471Z,99989.69
2023-03-06T07:53:39.577Z,99995.56
2023-03-06T07:56:08.898Z,99986.81
2023-03-06T07:58:36.636Z,99991.06
2023-03-06T08:01:05.404Z,99998.84
2023-03-06T08:03:32.447Z,99982.25
2023-03-06T08:06:10.744Z,99987.34
2023-03-06T08:08:39.395Z,99992.00
2023-03-06T08:11:07.271Z,99986.53
2023-03-06T08:13:34.576Z,99993.72
2023-03-06T08:16:01.437Z,99984.97
2023-03-06T08:18:28.489Z,99995.88
2023-03-06T08:21:09.237Z,99998.19
2023-03-06T08:23:36.207Z,99994.03
2023-03-06T08:26:05.820Z,99990.91
2023-03-06T08:28:32.863Z,99997.22
2023-03-06T08:31:07.199Z,99993.69
2023-03-06T08:33:33.633Z,99993.09
2023-03-06T08:36:01.406Z,99991.47
2023-03-06T08:38:28.734Z,99988.97
2023-03-06T08:40:55.134Z,99994.72
2023-03-06T08:43:21.545Z,99991.41
2023-03-06T08:45:55.887Z,99983.72
2023-03-06T08:48:22.370Z,99984.56
2023-03-06T08:50:48.813Z,99985.44
2023-03-06T08:53:15.390Z,99989.69
2023-03-06T08:55:41.948Z,99988.47
2023-03-06T08:58:08.650Z,99991.81
2023-03-06T09:00:35.827Z,99988.22
2023-03-06T09:03:02.310Z,99982.16
2023-03-06T09:05:28.727Z,99990.53
2023-03-06T09:07:55.218Z,99986.75
2023-03-06T09:10:23.643Z,99983.41
2023-03-06T09:12:53.221Z,99987.19
2023-03-06T09:15:22.665Z,99988.88
2023-03-06T09:17:49.216Z,99986.34
2023-03-06T09:20:16.525Z,99992.66
2023-03-06T09:22:43.622Z,99990.16
2023-03-06T09:25:13.129Z,99994.16
2023-03-06T09:27:40.131Z,99993.94
2023-03-06T09:30:07.631Z,99994.59
2023-03-06T09:32:34.083Z,99995.69
2023-03-06T09:35:00.918Z,99989.16
2023-03-06T09:37:27.413Z,99987.25
2023-03-06T09:39:53.793Z,99987.25
2023-03-06T09:42:23.426Z,99986.84
2023-03-06T09:44:54.594Z,99985.59
2023-03-06T09:47:38.782Z,99980.34
2023-03-06T09:50:29.518Z,99983.91
2023-03-06T09:53:16.773Z,99988.94
2023-03-06T09:55:50.115Z,99983.69
2023-03-06T09:58:21.942Z,99989.59
2023-03-06T10:01:12.193Z,99977.16
2023-03-06T10:03:56.831Z,99979.69
2023-03-06T10:06:33.064Z,99974.03
2023-03-06T10:09:23.265Z,99969.78
2023-03-06T10:12:00.606Z,99977.16
2023-03-06T10:14:31.878Z,99973.75
2023-03-06T10:16:58.578Z,99969.72
2023-03-06T10:19:33.594Z,99970.75
2023-03-06T10:22:36.888Z,99975.34
2023-03-06T10:25:17.600Z,99970.06
2023-03-06T10:28:01.391Z,99967.34
2023-03-06T10:30:57.125Z,99971.75
2023-03-06T10:33:52.638Z,99970.50
2023-03-06T10:36:21.122Z,99972.00
2023-03-06T10:38:48.771Z,99972.41
2023-03-06T10:41:25.140Z,99969.06
2023-03-06T10:44:00.634Z,99970.38
2023-03-06T10:46:29.839Z,99969.28
2023-03-06T10:49:04.962Z,99965.25
2023-03-06T10:51:33.109Z,99975.97
2023-03-06T10:54:18.064Z,99975.72
2023-03-06T10:56:46.992Z,99969.84
2023-03-06T10:59:15.150Z,99978.47
2023-03-06T11:01:46.798Z,99981.19
2023-03-06T11:04:32.268Z,99974.09
2023-03-06T11:07:18.481Z,99967.38
2023-03-06T11:09:58.312Z,99971.56
2023-03-06T11:12:34.545Z,99976.16
2023-03-06T11:15:07.286Z,99982.84
2023-03-06T11:17:55.712Z,99970.81
2023-03-06T11:20:52.150Z,99970.13
2023-03-06T11:23:29.127Z,99959.06
2023-03-06T11:26:02.328Z,99948.41
2023-03-06T11:28:32.103Z,99942.44
2023-03-06T11:31:13.713Z,99938.69
2023-03-06T11:33:49.762Z,99930.97
2023-03-06T11:36:38.600Z,99932.06
2023-03-06T11:39:15.619Z,99936.53
2023-03-06T11:42:06.701Z,99920.72
2023-03-06T11:44:47.724Z,99924.69
2023-03-06T11:47:28.492Z,99919.59
2023-03-06T11:50:19.001Z,99917.09
2023-03-06T11:52:51.367Z,99909.84
2023-03-06T11:55:48.795Z,99906.31
2023-03-06T11:58:40.343Z,99904.94
2023-03-06T12:01:26.959Z,99904.81
2023-03-06T12:04:03.760Z,99896.72
2023-03-06T12:06:30.159Z,99900.66
2023-03-06T12:09:11.915Z,99895.56
2023-03-06T12:11:48.418Z,99885.78
2023-03-06T12:14:30.712Z,99893.81
2023-03-06T12:17:24.300Z,99891.00
2023-03-06T12:20:16.208Z,99892.38
2023-03-06T12:22:58.230Z,99884.81
2023-03-06T12:25:42.294Z,99881.91
2023-03-06T12:28:08.707Z,99881.31
2023-03-06T12:30:56.071Z,99876.41
2023-03-06T12:33:34.965Z,99869.88
2023-03-06T12:36:22.818Z,99873.38
2023-03-06T12:39:10.341Z,99869.56
2023-03-06T12:41:43.154Z,99863.63
2023-03-06T12:44:51.362Z,99868.25
2023-03-06T12:47:21.303Z,99862.41
2023-03-06T12:49:53.230Z,99857.59
2023-03-06T12:52:30.189Z,99856.59
2023-03-06T12:54:59.987Z,99862.56
2023-03-06T12:57:26.677Z,99860.25
2023-03-06T12:59:53.690Z,99853.69
2023-03-06T13:03:15.663Z,99857.19
2023-03-06T13:06:05.205Z,99856.44
2023-03-06T13:08:52.671Z,99848.94
2023-03-06T13:11:35.464Z,99851.69
2023-03-06T13:14:21.892Z,99850.91
2023-03-06T13:16:48.428Z,99847.25
2023-03-06T13:19:24.255Z,99845.44
2023-03-06T13:21:56.719Z,99841.47
2023-03-06T13:24:23.927Z,99853.09
2023-03-06T13:27:02.727Z,99839.84
2023-03-06T13:29:38.373Z,99844.03
2023-03-06T13:32:15.813Z,99830.31
2023-03-06T13:34:48.448Z,99838.53
2023-03-06T13:37:18.506Z,99840.03
2023-03-06T13:39:53.958Z,99830.09
2023-03-06T13:42:42.228Z,99831.03
2023-03-06T13:45:19.257Z,99823.38
2023-03-06T13:50:43.764Z,99823.06
2023-03-06T13:53:22.347Z,99816.75
2023-03-06T13:55:58.765Z,99823.91
2023-03-06T13:58:44.806Z,99822.22
2023-03-06T14:01:20.647Z,99822.63
2023-03-06T14:04:08.607Z,99827.50
2023-03-06T14:06:34.941Z,99813.78
2023-03-06T14:09:05.408Z,99808.34
2023-03-06T14:11:33.030Z,99816.41
2023-03-06T14:13:59.864Z,99810.53
2023-03-06T14:16:40.511Z,99821.69
2023-03-06T14:19:16.480Z,99821.53
2023-03-06T14:21:49.685Z,99821.81
2023-03-06T14:24:18.257Z,99821.66
2023-03-06T14:26:50.580Z,99824.00
2023-03-06T14:29:23.530Z,99819.81
2023-03-06T14:31:52.726Z,99814.59
2023-03-06T14:34:32.394Z,99813.50
2023-03-06T14:37:05.593Z,99812.91
2023-03-06T14:39:39.089Z,99805.13
2023-03-06T14:42:25.075Z,99810.81
2023-03-06T14:45:15.884Z,99804.50
2023-03-06T14:47:43.232Z,99809.38
2023-03-06T14:50:35.209Z,99805.34
2023-03-06T14:53:17.447Z,99807.69
2023-03-06T14:55:57.768Z,99796.34
2023-03-06T14:58:30.440Z,99796.13
2023-03-06T15:01:02.532Z,99795.09
2023-03-06T15:03:49.114Z,99803.13
2023-03-06T15:06:20.932Z,99795.34
2023-03-06T15:08:52.376Z,99800.38
2023-03-06T15:11:18.788Z,99798.47
2023-03-06T15:14:00.650Z,99797.41
2023-03-06T15:16:30.109Z,99799.94
2023-03-06T15:19:04.671Z,99797.19
2023-03-06T15:21:38.607Z,99792.34
2023-03-06T15:24:35.824Z,99796.72
2023-03-06T15:27:15.135Z,99794.00
2023-03-06T15:29:41.747Z,99802.44
2023-03-06T15:32:34.375Z,99804.56
2023-03-06T15:35:27.783Z,99804.00
2023-03-06T15:37:54.908Z,99800.44
2023-03-06T15:40:23.908Z,99803.47
2023-03-06T15:42:50.494Z,99810.25
2023-03-06T15:45:22.814Z,99802.69
2023-03-06T15:47:51.835Z,99809.19
2023-03-06T15:50:20.190Z,99808.56
2023-03-06T15:52:47.769Z,99807.50
2023-03-06T15:55:16.125Z,99806.22
2023-03-06T15:57:56.575Z,99802.88
2023-03-06T16:00:28.265Z,99801.44
2023-03-06T16:02:56.330Z,99795.13
2023-03-06T16:05:23.379Z,99800.19
2023-03-06T16:07:49.893Z,99800.19
2023-03-06T16:10:19.174Z,99801.84
2023-03-06T16:12:49.847Z,99802.28
2023-03-06T16:15:22.236Z,99795.16
2023-03-06T16:17:49.474Z,99797.25
2023-03-06T16:20:18.218Z,99798.31
2023-03-06T16:22:47.141Z,99794.31
2023-03-06T16:25:14.531Z,99792.88
2023-03-06T16:27:49.636Z,99794.78
2023-03-06T16:30:20.450Z,99793.53
2023-03-06T16:32:46.993Z,99789.75
2023-03-06T16:35:14.598Z,99793.97
2023-03-06T16:37:41.873Z,99784.31
2023-03-06T16:40:29.405Z,99791.06
2023-03-06T16:42:56.141Z,99775.06
2023-03-06T16:45:24.465Z,99787.09
2023-03-06T16:47:51.454Z,99790.22
2023-03-06T16:50:32.393Z,99787.09
2023-03-06T16:52:59.230Z,99790.66
2023-03-06T16:55:27.074Z,99789.00
2023-03-06T16:57:53.735Z,99782.28
2023-03-06T17:00:21.512Z,99785.03
2023-03-06T17:02:48.911Z,99782.50
2023-03-06T17:05:15.361Z,99786.28
2023-03-06T17:07:41.762Z,99788.16
2023-03-06T17:10:11.213Z,99788.41
2023-03-06T17:12:38.208Z,99785.88
2023-03-06T17:15:06.178Z,99785.28
2023-03-06T17:17:32.902Z,99781.88
2023-03-06T17:19:59.422Z,99791.19
2023-03-06T17:22:27.317Z,99781.50
2023-03-06T17:24:54.231Z,99786.13
2023-03-06T17:27:22.682Z,99790.13
2023-03-06T17:29:49.110Z,99788.25
2023-03-06T17:32:15.554Z,99796.66
2023-03-06T17:34:42.244Z,99791.63
2023-03-06T17:37:08.616Z,99789.97
2023-03-06T17:39:37.364Z,99791.22
2023-03-06T17:42:04.936Z,99795.00
2023-03-06T17:44:33.008Z,99792.50
2023-03-06T17:46:59.518Z,99800.06
2023-03-06T17:49:25.962Z,99794.16
2023-03-06T17:51:53.038Z,99788.09
2023-03-06T17:54:19.869Z,99786.63
2023-03-06T17:56:46.328Z,99778.03
2023-03-06T17:59:13.017Z,99780.34
2023-03-06T18:01:39.682Z,99785.41
2023-03-06T18:04:06.452Z,99781.19
2023-03-06T18:06:33.833Z,99788.78
2023-03-06T18:09:01.230Z,99785.00
2023-03-06T18:11:28.058Z,99788.34
2023-03-06T18:13:54.519Z,99792.59
2023-03-06T18:16:23.341Z,99793.84
2023-03-06T18:18:54.960Z,99789.66
2023-03-06T18:21:22.811Z,99783.75
2023-03-06T18:23:49.720Z,99778.31
2023-03-06T18:26:23.093Z,99764.63
2023-03-06T18:28:53.998Z,99769.47
2023-03-06T18:31:31.738Z,99768.25
2023-03-06T18:34:02.142Z,99761.50
2023-03-06T18:36:31.691Z,99755.22
2023-03-06T18:38:59.215Z,99760.06
2023-03-06T18:41:25.663Z,99760.06
2023-03-06T18:43:56.349Z,99767.38
2023-03-06T18:46:23.928Z,99767.16
2023-03-06T18:48:50.365Z,99768.00
2023-03-06T18:51:17.806Z,99773.25
2023-03-06T18:53:44.258Z,99772.00
2023-03-06T18:56:17.018Z,99761.06
2023-03-06T18:58:44.169Z,99761.88
2023-03-06T19:01:11.401Z,99757.28
2023-03-06T19:03:37.884Z,99753.28
2023-03-06T19:06:09.682Z,99759.34
2023-03-06T19:08:37.274Z,99757.88
2023-03-06T19:11:09.228Z,99761.25
2023-03-06T19:13:35.792Z,99765.66
2023-03-06T19:16:02.333Z,99759.81
2023-03-06T19:18:29.697Z,99755.81
2023-03-06T19:21:06.995Z,99757.69
2023-03-06T19:23:33.401Z,99760.00
2023-03-06T19:26:00.270Z,99766.53
2023-03-06T19:28:27.094Z,99756.66
2023-03-06T19:30:53.620Z,99756.44
2023-03-06T19:33:20.266Z,99760.00
2023-03-06T19:35:46.764Z,99752.41
2023-03-06T19:38:13.937Z,99745.69
2023-03-06T19:40:40.399Z,99750.94
2023-03-06T19:43:06.797Z,99748.00
2023-03-06T19:45:33.216Z,99743.81
2023-03-06T19:48:05.386Z,99734.13
2023-03-06T19:50:31.783Z,99742.94
2023-03-06T19:52:58.299Z,99740.59
2023-03-06T19:55:26.300Z,99740.41
2023-03-06T19:57:53.268Z,99732.41
2023-03-06T20:00:20.205Z,99734.53
2023-03-06T20:02:46.668Z,99733.88
2023-03-06T20:05:13.193Z,99728.22
2023-03-06T20:07:39.572Z,99727.38
2023-03-06T20:10:06.412Z,99729.50
2023-03-06T20:12:33.414Z,99730.34
2023-03-06T20:15:00.076Z,99717.75
2023-03-06T20:17:26.616Z,99715.25
2023-03-06T20:19:53.519Z,99708.97
2023-03-06T20:22:20.064Z,99700.16
2023-03-06T20:24:46.854Z,99710.66
2023-03-06T20:27:13.673Z,99698.06
2023-03-06T20:29:44.557Z,99696.59
2023-03-06T20:32:12.988Z,99690.09
2023-03-06T20:34:40.067Z,99702.28
2023-03-06T20:37:07.892Z,99696.81
2023-03-06T20:39:34.909Z,99685.91
2023-03-06T20:42:01.962Z,99698.09
2023-03-06T20:44:28.848Z,99687.59
2023-03-06T20:46:55.279Z,99694.69
2023-03-06T20:49:22.367Z,99683.16
2023-03-06T20:51:49.953Z,99686.75
2023-03-06T20:54:17.173Z,99683.78
2023-03-06T20:56:47.810Z,99693.88
2023-03-06T20:59:14.728Z,99686.31
2023-03-06T21:01:43.650Z,99682.97
2023-03-06T21:04:13.551Z,99683.38
2023-03-06T21:06:42.428Z,99686.75
2023-03-06T21:09:08.929Z,99679.38
2023-03-06T21:11:35.632Z,99674.56
2023-03-06T21:14:02.333Z,99676.66
2023-03-06T21:16:30.388Z,99674.78
2023-03-06T21:18:58.764Z,99669.31
2023-03-06T21:21:28.925Z,99659.00
2023-03-06T21:23:55.806Z,99653.56
2023-03-06T21:26:24.536Z,99653.78
2023-03-06T21:28:51.030Z,99651.06
2023-03-06T21:31:19.835Z,99647.50
2023-03-06T21:33:47.968Z,99637.41
2023-03-06T21:36:15.709Z,99638.47
2023-03-06T21:38:42.111Z,99636.78
2023-03-06T21:41:12.615Z,99641.81
2023-03-06T21:43:39.436Z,99626.47
2023-03-06T21:46:05.998Z,99634.66
2023-03-06T21:48:32.945Z,99626.72
2023-03-06T21:51:15.731Z,99626.72
2023-03-06T21:53:43.296Z,99632.16
2023-03-06T21:56:10.247Z,99625.88
2023-03-06T21:58:37.056Z,99624.41
2023-03-06T22:01:09.556Z,99622.53
2023-03-06T22:03:36.065Z,99615.81
2023-03-06T22:06:13.670Z,99603.63
2023-03-06T22:08:41.073Z,99612.25
2023-03-06T22:11:13.668Z,99608.69
2023-03-06T22:13:41.119Z,99605.09
2023-03-06T22:16:08.665Z,99600.50
2023-03-06T22:18:35.914Z,99592.72
2023-03-06T22:21:13.854Z,99595.66
2023-03-06T22:23:40.613Z,99595.66
2023-03-06T22:26:12.729Z,99591.91
2023-03-06T22:28:40.805Z,99584.75
2023-03-06T22:31:13.231Z,99599.00
2023-03-06T22:33:40.275Z,99591.03
2023-03-06T22:36:10.011Z,99586.19
2023-03-06T22:38:39.020Z,99578.03
2023-03-06T22:41:06.965Z,99578.03
2023-03-06T22:43:34.094Z,99582.63
2023-03-06T22:46:02.642Z,99572.38
2023-03-06T22:48:29.230Z,99575.28
2023-03-06T22:50:55.690Z,99576.78
2023-03-06T22:53:22.102Z,99565.88
2023-03-06T22:55:48.491Z,99569.63
2023-03-06T22:58:14.923Z,99563.75
2023-03-06T23:00:41.309Z,99563.75
2023-03-06T23:03:07.713Z,99551.16
2023-03-06T23:05:34.107Z,99546.94
2023-03-06T23:08:00.559Z,99551.56
2023-03-06T23:10:26.990Z,99547.78
2023-03-06T23:12:53.431Z,99548.00
2023-03-06T23:15:20.250Z,99551.16
2023-03-06T23:17:46.746Z,99550.94
2023-03-06T23:20:13.677Z,99543.16
2023-03-06T23:22:40.106Z,99541.09
2023-03-06T23:25:06.829Z,99538.13
2023-03-06T23:27:35.427Z,99543.16
2023-03-06T23:30:02.494Z,99534.34
2023-03-06T23:32:30.802Z,99530.56
2023-03-06T23:34:57.206Z,99527.63
2023-03-06T23:37:23.660Z,99524.69
2023-03-06T23:39:50.065Z,99531.81
2023-03-06T23:42:16.509Z,99518.78
2023-03-06T23:44:42.969Z,99525.94
2023-03-06T23:47:09.380Z,99516.66
2023-03-06T23:49:36.017Z,99510.00
2023-03-06T23:52:02.409Z,99509.56
2023-03-06T23:54:28.793Z,99502.41
2023-03-06T23:56:55.245Z,99504.09
2023-03-06T23:59:21.703Z,99506.84
